sensor_id;sensor_type;location;lat;lon;timestamp;P1;durP1;ratioP1;P2;durP2;ratioP2
19235;SDS011;9752;54.270;12.470;2022-09-09T00:04:13;13.23;;;11.87;;
19235;SDS011;9752;54.270;12.470;2022-09-09T00:09:21;14.53;;;13.03;;
19235;SDS011;9752;54.270;12.470;2022-09-09T00:14:31;14.60;;;11.77;;
19235;SDS011;9752;54.270;12.470;2022-09-09T00:19:41;18.93;;;14.07;;
19235;SDS011;9752;54.270;12.470;2022-09-09T00:24:51;23.20;;;15.90;;
19235;SDS011;9752;54.270;12.470;2022-09-09T00:29:55;28.80;;;18.60;;
19235;SDS011;9752;54.270;12.470;2022-09-09T00:35:02;38.83;;;22.57;;
19235;SDS011;9752;54.270;12.470;2022-09-09T00:40:19;37.60;;;24.43;;
19235;SDS011;9752;54.270;12.470;2022-09-09T00:45:34;44.07;;;27.40;;
19235;SDS011;9752;54.270;12.470;2022-09-09T00:50:51;51.10;;;30.17;;
19235;SDS011;9752;54.270;12.470;2022-09-09T00:56:00;50.43;;;31.77;;
19235;SDS011;9752;54.270;12.470;2022-09-09T01:01:11;48.30;;;30.50;;
19235;SDS011;9752;54.270;12.470;2022-09-09T01:06:20;52.63;;;35.57;;
19235;SDS011;9752;54.270;12.470;2022-09-09T01:11:32;65.13;;;38.13;;
19235;SDS011;9752;54.270;12.470;2022-09-09T01:16:45;55.47;;;35.70;;
19235;SDS011;9752;54.270;12.470;2022-09-09T01:21:53;57.57;;;41.03;;
19235;SDS011;9752;54.270;12.470;2022-09-09T01:27:05;49.43;;;35.00;;
19235;SDS011;9752;54.270;12.470;2022-09-09T01:37:43;47.83;;;37.17;;
19235;SDS011;9752;54.270;12.470;2022-09-09T01:42:47;54.60;;;36.47;;
19235;SDS011;9752;54.270;12.470;2022-09-09T01:47:49;50.90;;;35.20;;
19235;SDS011;9752;54.270;12.470;2022-09-09T01:53:08;47.10;;;33.43;;
19235;SDS011;9752;54.270;12.470;2022-09-09T01:58:17;53.57;;;35.13;;
19235;SDS011;9752;54.270;12.470;2022-09-09T02:03:32;44.03;;;31.70;;
19235;SDS011;9752;54.270;12.470;2022-09-09T02:08:52;52.10;;;36.93;;
19235;SDS011;9752;54.270;12.470;2022-09-09T02:13:58;56.77;;;38.50;;
19235;SDS011;9752;54.270;12.470;2022-09-09T02:19:04;53.53;;;37.10;;
19235;SDS011;9752;54.270;12.470;2022-09-09T02:24:25;49.67;;;33.87;;
19235;SDS011;9752;54.270;12.470;2022-09-09T02:29:42;53.67;;;35.53;;
19235;SDS011;9752;54.270;12.470;2022-09-09T02:34:47;45.67;;;31.83;;
19235;SDS011;9752;54.270;12.470;2022-09-09T02:39:51;41.97;;;29.10;;
19235;SDS011;9752;54.270;12.470;2022-09-09T02:44:57;38.80;;;27.23;;
19235;SDS011;9752;54.270;12.470;2022-09-09T02:50:05;39.60;;;26.50;;
19235;SDS011;9752;54.270;12.470;2022-09-09T02:55:16;41.80;;;27.20;;
19235;SDS011;9752;54.270;12.470;2022-09-09T03:00:28;36.03;;;25.47;;
19235;SDS011;9752;54.270;12.470;2022-09-09T03:05:34;41.10;;;26.83;;
19235;SDS011;9752;54.270;12.470;2022-09-09T03:10:36;35.07;;;24.33;;
19235;SDS011;9752;54.270;12.470;2022-09-09T03:15:39;33.93;;;23.43;;
19235;SDS011;9752;54.270;12.470;2022-09-09T03:20:45;30.20;;;23.30;;
19235;SDS011;9752;54.270;12.470;2022-09-09T03:25:49;32.23;;;22.93;;
19235;SDS011;9752;54.270;12.470;2022-09-09T03:30:59;37.57;;;24.87;;
19235;SDS011;9752;54.270;12.470;2022-09-09T03:36:05;64.97;;;33.57;;
19235;SDS011;9752;54.270;12.470;2022-09-09T03:41:08;53.13;;;31.10;;
19235;SDS011;9752;54.270;12.470;2022-09-09T03:46:13;34.47;;;23.60;;
19235;SDS011;9752;54.270;12.470;2022-09-09T03:51:15;31.57;;;22.60;;
19235;SDS011;9752;54.270;12.470;2022-09-09T03:56:17;37.40;;;25.37;;
19235;SDS011;9752;54.270;12.470;2022-09-09T04:01:23;34.27;;;24.00;;
19235;SDS011;9752;54.270;12.470;2022-09-09T04:06:25;38.80;;;25.20;;
19235;SDS011;9752;54.270;12.470;2022-09-09T04:11:27;30.27;;;22.23;;
19235;SDS011;9752;54.270;12.470;2022-09-09T04:16:33;33.60;;;23.30;;
19235;SDS011;9752;54.270;12.470;2022-09-09T04:21:37;31.50;;;21.37;;
19235;SDS011;9752;54.270;12.470;2022-09-09T04:26:40;35.17;;;22.17;;
19235;SDS011;9752;54.270;12.470;2022-09-09T04:31:43;31.43;;;21.80;;
19235;SDS011;9752;54.270;12.470;2022-09-09T04:36:45;58.57;;;30.23;;
19235;SDS011;9752;54.270;12.470;2022-09-09T04:41:47;58.90;;;31.53;;
19235;SDS011;9752;54.270;12.470;2022-09-09T04:46:51;58.47;;;32.17;;
19235;SDS011;9752;54.270;12.470;2022-09-09T04:51:54;36.73;;;24.33;;
19235;SDS011;9752;54.270;12.470;2022-09-09T04:56:56;66.37;;;34.30;;
19235;SDS011;9752;54.270;12.470;2022-09-09T05:01:59;48.40;;;27.17;;
19235;SDS011;9752;54.270;12.470;2022-09-09T05:07:03;49.27;;;30.70;;
19235;SDS011;9752;54.270;12.470;2022-09-09T05:12:05;43.23;;;26.50;;
19235;SDS011;9752;54.270;12.470;2022-09-09T05:17:11;55.30;;;30.00;;
19235;SDS011;9752;54.270;12.470;2022-09-09T05:22:17;47.23;;;28.50;;
19235;SDS011;9752;54.270;12.470;2022-09-09T05:27:21;44.77;;;26.87;;
19235;SDS011;9752;54.270;12.470;2022-09-09T05:32:25;48.73;;;28.73;;
19235;SDS011;9752;54.270;12.470;2022-09-09T05:37:28;43.37;;;29.00;;
19235;SDS011;9752;54.270;12.470;2022-09-09T05:42:30;39.40;;;27.17;;
19235;SDS011;9752;54.270;12.470;2022-09-09T05:47:35;37.70;;;26.63;;
19235;SDS011;9752;54.270;12.470;2022-09-09T05:52:40;40.90;;;26.47;;
19235;SDS011;9752;54.270;12.470;2022-09-09T05:57:42;48.47;;;30.47;;
19235;SDS011;9752;54.270;12.470;2022-09-09T06:02:51;38.47;;;26.23;;
19235;SDS011;9752;54.270;12.470;2022-09-09T06:07:55;52.90;;;32.07;;
19235;SDS011;9752;54.270;12.470;2022-09-09T06:12:58;42.43;;;28.53;;
19235;SDS011;9752;54.270;12.470;2022-09-09T06:18:01;46.43;;;28.50;;
19235;SDS011;9752;54.270;12.470;2022-09-09T06:23:03;42.03;;;28.20;;
19235;SDS011;9752;54.270;12.470;2022-09-09T06:28:05;53.30;;;31.90;;
19235;SDS011;9752;54.270;12.470;2022-09-09T06:33:08;50.30;;;32.00;;
19235;SDS011;9752;54.270;12.470;2022-09-09T06:38:11;51.37;;;30.97;;
19235;SDS011;9752;54.270;12.470;2022-09-09T06:43:12;48.37;;;28.73;;
19235;SDS011;9752;54.270;12.470;2022-09-09T06:48:22;43.33;;;27.40;;
19235;SDS011;9752;54.270;12.470;2022-09-09T06:53:26;43.60;;;29.77;;
19235;SDS011;9752;54.270;12.470;2022-09-09T06:58:28;53.67;;;34.47;;
19235;SDS011;9752;54.270;12.470;2022-09-09T07:03:34;66.27;;;40.20;;
19235;SDS011;9752;54.270;12.470;2022-09-09T07:08:37;46.17;;;31.83;;
19235;SDS011;9752;54.270;12.470;2022-09-09T07:13:39;40.37;;;27.13;;
19235;SDS011;9752;54.270;12.470;2022-09-09T07:18:44;44.63;;;30.43;;
19235;SDS011;9752;54.270;12.470;2022-09-09T07:23:46;38.50;;;26.03;;
19235;SDS011;9752;54.270;12.470;2022-09-09T07:28:48;30.33;;;21.97;;
19235;SDS011;9752;54.270;12.470;2022-09-09T07:33:51;41.37;;;28.40;;
19235;SDS011;9752;54.270;12.470;2022-09-09T07:38:54;35.20;;;26.40;;
19235;SDS011;9752;54.270;12.470;2022-09-09T07:43:57;35.27;;;25.73;;
19235;SDS011;9752;54.270;12.470;2022-09-09T07:49:01;42.30;;;27.20;;
19235;SDS011;9752;54.270;12.470;2022-09-09T07:54:08;31.47;;;23.90;;
19235;SDS011;9752;54.270;12.470;2022-09-09T07:59:13;36.43;;;26.80;;
19235;SDS011;9752;54.270;12.470;2022-09-09T08:04:18;31.27;;;24.23;;
19235;SDS011;9752;54.270;12.470;2022-09-09T08:09:22;30.27;;;23.40;;
19235;SDS011;9752;54.270;12.470;2022-09-09T08:14:25;35.67;;;26.27;;
19235;SDS011;9752;54.270;12.470;2022-09-09T08:19:30;42.27;;;28.87;;
19235;SDS011;9752;54.270;12.470;2022-09-09T08:24:36;37.17;;;27.57;;
19235;SDS011;9752;54.270;12.470;2022-09-09T08:29:38;44.03;;;28.50;;
19235;SDS011;9752;54.270;12.470;2022-09-09T08:34:41;33.60;;;25.53;;
19235;SDS011;9752;54.270;12.470;2022-09-09T08:39:49;35.03;;;25.73;;
19235;SDS011;9752;54.270;12.470;2022-09-09T08:44:57;40.40;;;28.87;;
19235;SDS011;9752;54.270;12.470;2022-09-09T08:50:21;37.37;;;27.40;;
19235;SDS011;9752;54.270;12.470;2022-09-09T08:55:32;39.27;;;27.97;;
19235;SDS011;9752;54.270;12.470;2022-09-09T09:00:43;31.47;;;24.90;;
19235;SDS011;9752;54.270;12.470;2022-09-09T09:05:57;31.13;;;24.53;;
19235;SDS011;9752;54.270;12.470;2022-09-09T09:11:07;32.00;;;26.43;;
19235;SDS011;9752;54.270;12.470;2022-09-09T09:16:13;32.87;;;26.70;;
19235;SDS011;9752;54.270;12.470;2022-09-09T09:21:28;34.03;;;27.00;;
19235;SDS011;9752;54.270;12.470;2022-09-09T09:26:38;34.97;;;28.23;;
19235;SDS011;9752;54.270;12.470;2022-09-09T09:31:42;30.43;;;25.47;;
19235;SDS011;9752;54.270;12.470;2022-09-09T09:36:53;28.57;;;23.20;;
19235;SDS011;9752;54.270;12.470;2022-09-09T09:41:57;24.90;;;22.20;;
19235;SDS011;9752;54.270;12.470;2022-09-09T09:47:11;34.03;;;26.87;;
19235;SDS011;9752;54.270;12.470;2022-09-09T09:52:20;27.93;;;24.20;;
19235;SDS011;9752;54.270;12.470;2022-09-09T09:57:25;24.03;;;20.57;;
19235;SDS011;9752;54.270;12.470;2022-09-09T10:02:31;24.67;;;21.40;;
19235;SDS011;9752;54.270;12.470;2022-09-09T10:07:44;21.80;;;19.50;;
19235;SDS011;9752;54.270;12.470;2022-09-09T10:12:49;24.23;;;21.53;;
19235;SDS011;9752;54.270;12.470;2022-09-09T10:17:59;21.57;;;18.27;;
19235;SDS011;9752;54.270;12.470;2022-09-09T10:23:21;20.00;;;18.00;;
19235;SDS011;9752;54.270;12.470;2022-09-09T10:28:46;21.17;;;18.87;;
19235;SDS011;9752;54.270;12.470;2022-09-09T10:34:01;19.60;;;16.67;;
19235;SDS011;9752;54.270;12.470;2022-09-09T10:39:15;21.27;;;19.17;;
19235;SDS011;9752;54.270;12.470;2022-09-09T10:44:38;21.40;;;17.97;;
19235;SDS011;9752;54.270;12.470;2022-09-09T10:49:58;23.67;;;17.97;;
19235;SDS011;9752;54.270;12.470;2022-09-09T10:55:16;20.00;;;17.83;;
19235;SDS011;9752;54.270;12.470;2022-09-09T11:00:20;24.17;;;18.90;;
19235;SDS011;9752;54.270;12.470;2022-09-09T11:05:25;19.47;;;17.30;;
19235;SDS011;9752;54.270;12.470;2022-09-09T11:10:34;15.87;;;14.27;;
19235;SDS011;9752;54.270;12.470;2022-09-09T11:15:41;14.10;;;12.77;;
19235;SDS011;9752;54.270;12.470;2022-09-09T11:20:48;13.53;;;10.83;;
19235;SDS011;9752;54.270;12.470;2022-09-09T11:25:55;15.00;;;12.67;;
19235;SDS011;9752;54.270;12.470;2022-09-09T11:31:07;13.63;;;12.33;;
19235;SDS011;9752;54.270;12.470;2022-09-09T11:36:27;13.67;;;12.17;;
19235;SDS011;9752;54.270;12.470;2022-09-09T11:41:41;14.83;;;13.30;;
19235;SDS011;9752;54.270;12.470;2022-09-09T11:46:42;14.70;;;13.20;;
19235;SDS011;9752;54.270;12.470;2022-09-09T11:51:47;13.47;;;12.10;;
19235;SDS011;9752;54.270;12.470;2022-09-09T11:56:51;14.70;;;12.87;;
19235;SDS011;9752;54.270;12.470;2022-09-09T12:01:54;12.13;;;10.90;;
19235;SDS011;9752;54.270;12.470;2022-09-09T12:06:58;11.33;;;10.33;;
19235;SDS011;9752;54.270;12.470;2022-09-09T12:12:17;12.17;;;11.13;;
19235;SDS011;9752;54.270;12.470;2022-09-09T12:17:25;15.17;;;10.23;;
19235;SDS011;9752;54.270;12.470;2022-09-09T12:22:30;10.60;;;9.53;;
19235;SDS011;9752;54.270;12.470;2022-09-09T12:27:42;10.47;;;9.37;;
19235;SDS011;9752;54.270;12.470;2022-09-09T12:32:58;10.70;;;9.67;;
19235;SDS011;9752;54.270;12.470;2022-09-09T12:38:02;11.00;;;10.00;;
19235;SDS011;9752;54.270;12.470;2022-09-09T12:43:18;12.53;;;11.03;;
19235;SDS011;9752;54.270;12.470;2022-09-09T12:48:22;9.90;;;9.10;;
19235;SDS011;9752;54.270;12.470;2022-09-09T12:53:31;10.63;;;8.20;;
19235;SDS011;9752;54.270;12.470;2022-09-09T12:58:37;9.37;;;8.57;;
19235;SDS011;9752;54.270;12.470;2022-09-09T13:03:42;9.00;;;8.00;;
19235;SDS011;9752;54.270;12.470;2022-09-09T13:08:47;10.93;;;8.90;;
19235;SDS011;9752;54.270;12.470;2022-09-09T13:13:51;9.57;;;7.53;;
19235;SDS011;9752;54.270;12.470;2022-09-09T13:18:55;8.43;;;7.53;;
19235;SDS011;9752;54.270;12.470;2022-09-09T13:23:57;9.37;;;8.33;;
19235;SDS011;9752;54.270;12.470;2022-09-09T13:29:16;8.83;;;7.53;;
19235;SDS011;9752;54.270;12.470;2022-09-09T13:34:26;7.77;;;7.07;;
19235;SDS011;9752;54.270;12.470;2022-09-09T13:39:29;6.97;;;6.43;;
19235;SDS011;9752;54.270;12.470;2022-09-09T13:44:33;6.67;;;6.17;;
19235;SDS011;9752;54.270;12.470;2022-09-09T13:49:39;8.67;;;7.37;;
19235;SDS011;9752;54.270;12.470;2022-09-09T13:54:41;7.10;;;6.50;;
19235;SDS011;9752;54.270;12.470;2022-09-09T13:59:45;7.67;;;6.70;;
19235;SDS011;9752;54.270;12.470;2022-09-09T14:04:47;7.80;;;7.03;;
19235;SDS011;9752;54.270;12.470;2022-09-09T14:09:50;7.40;;;6.70;;
19235;SDS011;9752;54.270;12.470;2022-09-09T14:14:53;6.90;;;6.40;;
19235;SDS011;9752;54.270;12.470;2022-09-09T14:19:55;6.47;;;5.87;;
19235;SDS011;9752;54.270;12.470;2022-09-09T14:24:57;6.67;;;6.07;;
19235;SDS011;9752;54.270;12.470;2022-09-09T14:30:00;7.47;;;6.33;;
19235;SDS011;9752;54.270;12.470;2022-09-09T14:35:02;6.37;;;5.77;;
19235;SDS011;9752;54.270;12.470;2022-09-09T14:40:04;8.77;;;6.50;;
19235;SDS011;9752;54.270;12.470;2022-09-09T14:45:09;6.03;;;5.47;;
19235;SDS011;9752;54.270;12.470;2022-09-09T14:50:11;6.03;;;5.23;;
19235;SDS011;9752;54.270;12.470;2022-09-09T14:55:14;7.70;;;5.47;;
19235;SDS011;9752;54.270;12.470;2022-09-09T15:00:17;6.00;;;5.33;;
19235;SDS011;9752;54.270;12.470;2022-09-09T15:05:19;6.63;;;5.13;;
19235;SDS011;9752;54.270;12.470;2022-09-09T15:10:21;7.23;;;5.53;;
19235;SDS011;9752;54.270;12.470;2022-09-09T15:15:24;5.70;;;5.10;;
19235;SDS011;9752;54.270;12.470;2022-09-09T15:20:26;8.57;;;4.87;;
19235;SDS011;9752;54.270;12.470;2022-09-09T15:25:28;5.60;;;4.90;;
19235;SDS011;9752;54.270;12.470;2022-09-09T15:30:31;8.33;;;5.97;;
19235;SDS011;9752;54.270;12.470;2022-09-09T15:35:33;5.70;;;4.47;;
19235;SDS011;9752;54.270;12.470;2022-09-09T15:40:34;5.57;;;5.10;;
19235;SDS011;9752;54.270;12.470;2022-09-09T15:45:38;7.30;;;5.83;;
19235;SDS011;9752;54.270;12.470;2022-09-09T15:50:39;6.90;;;6.20;;
19235;SDS011;9752;54.270;12.470;2022-09-09T15:55:41;11.77;;;6.80;;
19235;SDS011;9752;54.270;12.470;2022-09-09T16:00:46;6.57;;;5.97;;
19235;SDS011;9752;54.270;12.470;2022-09-09T16:05:50;11.20;;;6.80;;
19235;SDS011;9752;54.270;12.470;2022-09-09T16:10:52;7.20;;;5.63;;
19235;SDS011;9752;54.270;12.470;2022-09-09T16:15:55;9.73;;;6.20;;
19235;SDS011;9752;54.270;12.470;2022-09-09T16:20:58;5.33;;;4.73;;
19235;SDS011;9752;54.270;12.470;2022-09-09T16:26:00;6.70;;;5.77;;
19235;SDS011;9752;54.270;12.470;2022-09-09T16:31:05;6.17;;;5.53;;
19235;SDS011;9752;54.270;12.470;2022-09-09T16:36:08;6.33;;;5.20;;
19235;SDS011;9752;54.270;12.470;2022-09-09T16:41:12;7.17;;;4.80;;
19235;SDS011;9752;54.270;12.470;2022-09-09T16:46:17;5.90;;;4.97;;
19235;SDS011;9752;54.270;12.470;2022-09-09T16:51:20;8.83;;;5.93;;
19235;SDS011;9752;54.270;12.470;2022-09-09T16:56:24;8.37;;;7.07;;
19235;SDS011;9752;54.270;12.470;2022-09-09T17:01:29;9.70;;;7.93;;
19235;SDS011;9752;54.270;12.470;2022-09-09T17:06:33;26.20;;;11.90;;
19235;SDS011;9752;54.270;12.470;2022-09-09T17:11:36;10.40;;;9.33;;
19235;SDS011;9752;54.270;12.470;2022-09-09T17:16:40;11.47;;;8.70;;
19235;SDS011;9752;54.270;12.470;2022-09-09T17:21:42;11.57;;;7.63;;
19235;SDS011;9752;54.270;12.470;2022-09-09T17:26:47;6.50;;;5.77;;
19235;SDS011;9752;54.270;12.470;2022-09-09T17:31:50;11.57;;;9.53;;
19235;SDS011;9752;54.270;12.470;2022-09-09T17:36:51;9.80;;;7.90;;
19235;SDS011;9752;54.270;12.470;2022-09-09T17:41:53;11.70;;;7.63;;
19235;SDS011;9752;54.270;12.470;2022-09-09T17:46:56;6.83;;;5.97;;
19235;SDS011;9752;54.270;12.470;2022-09-09T17:51:59;7.37;;;5.93;;
19235;SDS011;9752;54.270;12.470;2022-09-09T17:57:02;8.47;;;6.37;;
19235;SDS011;9752;54.270;12.470;2022-09-09T18:02:05;7.43;;;6.20;;
19235;SDS011;9752;54.270;12.470;2022-09-09T18:07:07;6.73;;;6.00;;
19235;SDS011;9752;54.270;12.470;2022-09-09T18:12:09;6.60;;;5.37;;
19235;SDS011;9752;54.270;12.470;2022-09-09T18:17:12;8.07;;;5.10;;
19235;SDS011;9752;54.270;12.470;2022-09-09T18:22:14;6.93;;;4.33;;
19235;SDS011;9752;54.270;12.470;2022-09-09T18:27:18;7.27;;;4.43;;
19235;SDS011;9752;54.270;12.470;2022-09-09T18:32:21;5.67;;;4.07;;
19235;SDS011;9752;54.270;12.470;2022-09-09T18:37:23;5.90;;;4.70;;
19235;SDS011;9752;54.270;12.470;2022-09-09T18:42:25;8.67;;;5.43;;
19235;SDS011;9752;54.270;12.470;2022-09-09T18:47:28;9.50;;;6.77;;
19235;SDS011;9752;54.270;12.470;2022-09-09T18:52:29;9.47;;;6.13;;
19235;SDS011;9752;54.270;12.470;2022-09-09T18:57:31;7.80;;;6.80;;
19235;SDS011;9752;54.270;12.470;2022-09-09T19:02:34;8.73;;;7.00;;
19235;SDS011;9752;54.270;12.470;2022-09-09T19:07:38;9.00;;;7.97;;
19235;SDS011;9752;54.270;12.470;2022-09-09T19:12:40;12.77;;;9.07;;
19235;SDS011;9752;54.270;12.470;2022-09-09T19:17:43;16.13;;;10.27;;
19235;SDS011;9752;54.270;12.470;2022-09-09T19:22:45;12.93;;;9.00;;
19235;SDS011;9752;54.270;12.470;2022-09-09T19:27:47;10.30;;;7.47;;
19235;SDS011;9752;54.270;12.470;2022-09-09T19:32:50;7.70;;;6.30;;
19235;SDS011;9752;54.270;12.470;2022-09-09T19:37:52;9.40;;;7.00;;
19235;SDS011;9752;54.270;12.470;2022-09-09T19:42:54;11.23;;;7.53;;
19235;SDS011;9752;54.270;12.470;2022-09-09T19:47:57;13.53;;;7.53;;
19235;SDS011;9752;54.270;12.470;2022-09-09T19:52:59;11.53;;;8.47;;
19235;SDS011;9752;54.270;12.470;2022-09-09T19:58:01;8.87;;;7.47;;
19235;SDS011;9752;54.270;12.470;2022-09-09T20:03:04;14.83;;;10.50;;
19235;SDS011;9752;54.270;12.470;2022-09-09T20:08:06;10.93;;;9.17;;
19235;SDS011;9752;54.270;12.470;2022-09-09T20:13:08;13.87;;;10.63;;
19235;SDS011;9752;54.270;12.470;2022-09-09T20:18:11;15.70;;;11.30;;
19235;SDS011;9752;54.270;12.470;2022-09-09T20:23:13;12.70;;;9.70;;
19235;SDS011;9752;54.270;12.470;2022-09-09T20:28:15;15.07;;;12.03;;
19235;SDS011;9752;54.270;12.470;2022-09-09T20:33:18;14.83;;;11.00;;
19235;SDS011;9752;54.270;12.470;2022-09-09T20:38:21;13.30;;;11.30;;
19235;SDS011;9752;54.270;12.470;2022-09-09T20:43:22;13.43;;;10.93;;
19235;SDS011;9752;54.270;12.470;2022-09-09T20:48:25;14.33;;;11.10;;
19235;SDS011;9752;54.270;12.470;2022-09-09T20:53:27;13.27;;;10.70;;
19235;SDS011;9752;54.270;12.470;2022-09-09T20:58:30;11.77;;;9.63;;
19235;SDS011;9752;54.270;12.470;2022-09-09T21:03:34;10.77;;;9.47;;
19235;SDS011;9752;54.270;12.470;2022-09-09T21:08:37;10.50;;;7.97;;
19235;SDS011;9752;54.270;12.470;2022-09-09T21:13:40;9.30;;;7.30;;
19235;SDS011;9752;54.270;12.470;2022-09-09T21:18:43;12.37;;;9.00;;
19235;SDS011;9752;54.270;12.470;2022-09-09T21:23:45;8.57;;;7.60;;
19235;SDS011;9752;54.270;12.470;2022-09-09T21:28:47;9.37;;;7.43;;
19235;SDS011;9752;54.270;12.470;2022-09-09T21:33:50;8.80;;;7.93;;
19235;SDS011;9752;54.270;12.470;2022-09-09T21:38:52;8.93;;;7.13;;
19235;SDS011;9752;54.270;12.470;2022-09-09T21:43:54;7.50;;;6.47;;
19235;SDS011;9752;54.270;12.470;2022-09-09T21:48:57;9.97;;;7.03;;
19235;SDS011;9752;54.270;12.470;2022-09-09T21:54:02;9.80;;;7.43;;
19235;SDS011;9752;54.270;12.470;2022-09-09T21:59:06;11.80;;;7.83;;
19235;SDS011;9752;54.270;12.470;2022-09-09T22:04:09;11.23;;;8.20;;
19235;SDS011;9752;54.270;12.470;2022-09-09T22:09:10;13.53;;;8.40;;
19235;SDS011;9752;54.270;12.470;2022-09-09T22:14:12;11.23;;;8.93;;
19235;SDS011;9752;54.270;12.470;2022-09-09T22:19:16;16.23;;;11.93;;
19235;SDS011;9752;54.270;12.470;2022-09-09T22:24:18;13.93;;;10.17;;
19235;SDS011;9752;54.270;12.470;2022-09-09T22:29:20;15.60;;;12.07;;
19235;SDS011;9752;54.270;12.470;2022-09-09T22:34:23;18.70;;;12.70;;
19235;SDS011;9752;54.270;12.470;2022-09-09T22:39:28;17.40;;;12.73;;
19235;SDS011;9752;54.270;12.470;2022-09-09T22:44:30;18.83;;;13.57;;
19235;SDS011;9752;54.270;12.470;2022-09-09T22:49:36;20.90;;;12.23;;
19235;SDS011;9752;54.270;12.470;2022-09-09T22:54:39;23.33;;;16.03;;
19235;SDS011;9752;54.270;12.470;2022-09-09T22:59:41;11.93;;;10.07;;
19235;SDS011;9752;54.270;12.470;2022-09-09T23:04:45;33.60;;;19.77;;
19235;SDS011;9752;54.270;12.470;2022-09-09T23:09:47;30.03;;;17.73;;
19235;SDS011;9752;54.270;12.470;2022-09-09T23:14:49;37.10;;;20.93;;
19235;SDS011;9752;54.270;12.470;2022-09-09T23:19:52;32.37;;;17.67;;
19235;SDS011;9752;54.270;12.470;2022-09-09T23:24:55;30.90;;;20.97;;
19235;SDS011;9752;54.270;12.470;2022-09-09T23:29:57;51.47;;;21.47;;
19235;SDS011;9752;54.270;12.470;2022-09-09T23:35:00;38.80;;;22.43;;
19235;SDS011;9752;54.270;12.470;2022-09-09T23:40:01;62.93;;;27.67;;
19235;SDS011;9752;54.270;12.470;2022-09-09T23:45:04;34.77;;;22.47;;
19235;SDS011;9752;54.270;12.470;2022-09-09T23:50:08;44.97;;;26.70;;
19235;SDS011;9752;54.270;12.470;2022-09-09T23:55:10;52.30;;;29.87;;
